createdAt,value
2022-11-09T00:02:03.208Z,98
2022-11-09T00:07:43.258Z,94
2022-11-09T00:13:24.423Z,98
2022-11-09T00:19:04.800Z,98
2022-11-09T00:24:44.693Z,104
2022-11-09T00:30:25.245Z,94
2022-11-09T00:36:05.290Z,98
2022-11-09T00:41:45.382Z,100
2022-11-09T00:47:25.828Z,86
2022-11-09T00:53:05.733Z,102
2022-11-09T00:58:45.706Z,106
2022-11-09T01:04:25.940Z,96
2022-11-09T01:10:05.774Z,104
2022-11-09T01:15:45.956Z,94
2022-11-09T01:21:27.751Z,104
2022-11-09T01:27:07.950Z,104
2022-11-09T01:32:48.271Z,96
2022-11-09T01:38:28.501Z,92
2022-11-09T01:44:09.604Z,94
2022-11-09T01:49:51.551Z,98
2022-11-09T01:55:32.121Z,100
2022-11-09T02:01:14.356Z,104
2022-11-09T02:06:56.441Z,94
2022-11-09T02:12:37.762Z,92
2022-11-09T02:18:19.029Z,92
2022-11-09T02:24:00.423Z,100
2022-11-09T02:29:41.750Z,98
2022-11-09T02:35:22.800Z,94
2022-11-09T02:46:45.770Z,100
2022-11-09T02:52:27.232Z,98
2022-11-09T02:58:08.311Z,96
2022-11-09T03:03:49.707Z,96
2022-11-09T03:09:30.642Z,104
2022-11-09T03:15:11.788Z,100
2022-11-09T03:20:53.134Z,90
2022-11-09T03:26:33.819Z,92
2022-11-09T03:32:17.830Z,104
2022-11-09T03:38:00.418Z,90
2022-11-09T03:43:41.505Z,94
2022-11-09T03:49:21.709Z,90
2022-11-09T03:55:03.172Z,104
2022-11-09T04:06:24.965Z,104
2022-11-09T04:12:05.634Z,98
2022-11-09T04:17:47.137Z,102
2022-11-09T04:23:28.750Z,94
2022-11-09T04:29:09.877Z,98
2022-11-09T04:34:50.872Z,90
2022-11-09T04:40:31.733Z,100
2022-11-09T04:46:12.231Z,94
2022-11-09T04:51:52.095Z,90
2022-11-09T04:57:31.978Z,100
2022-11-09T05:03:13.163Z,100
2022-11-09T05:08:54.503Z,104
2022-11-09T05:14:35.756Z,94
2022-11-09T05:20:17.619Z,100
2022-11-09T05:25:59.183Z,102
2022-11-09T05:31:52.968Z,100
2022-11-09T05:37:33.932Z,106
2022-11-09T05:43:15.184Z,100
2022-11-09T05:48:56.312Z,104
2022-11-09T05:54:37.278Z,90
2022-11-09T06:00:17.705Z,92
2022-11-09T06:06:09.596Z,92
2022-11-09T06:11:51.981Z,86
2022-11-09T06:17:36.300Z,90
2022-11-09T06:23:20.543Z,100
2022-11-09T06:29:01.467Z,96
2022-11-09T06:40:25.093Z,100
2022-11-09T06:46:05.527Z,92
2022-11-09T06:51:46.691Z,106
2022-11-09T06:57:28.100Z,100
2022-11-09T07:03:09.700Z,102
2022-11-09T07:08:51.148Z,104
2022-11-09T07:14:32.613Z,96
2022-11-09T07:20:15.091Z,86
2022-11-09T07:25:55.314Z,98
2022-11-09T07:31:36.884Z,100
2022-11-09T07:37:18.403Z,100
2022-11-09T07:42:59.395Z,90
2022-11-09T07:48:40.113Z,106
2022-11-09T08:00:00.360Z,90
2022-11-09T08:05:40.468Z,94
2022-11-09T08:11:20.752Z,96
2022-11-09T08:17:00.932Z,102
2022-11-09T08:22:44.468Z,108
2022-11-09T08:28:25.442Z,94
2022-11-09T08:34:07.037Z,104
2022-11-09T08:39:47.645Z,106
2022-11-09T08:45:27.868Z,100
2022-11-09T08:51:08.261Z,110
2022-11-09T08:56:51.119Z,98
2022-11-09T09:02:31.474Z,98
2022-11-09T09:08:11.925Z,20
2022-11-09T09:13:51.973Z,28
2022-11-09T09:25:12.472Z,70
2022-11-09T09:30:52.508Z,90
2022-11-09T09:36:32.978Z,90
2022-11-09T09:42:13.070Z,74
2022-11-09T09:47:53.578Z,98
2022-11-09T09:53:33.725Z,72
2022-11-09T09:59:13.581Z,122
2022-11-09T10:04:54.590Z,74
2022-11-09T10:10:35.873Z,94
2022-11-09T10:16:15.646Z,64
2022-11-09T10:21:59.002Z,20
2022-11-09T10:27:39.084Z,84
2022-11-09T10:33:19.366Z,16
2022-11-09T10:38:59.816Z,14
2022-11-09T10:44:40.340Z,60
2022-11-09T10:50:20.618Z,16
2022-11-09T10:56:00.467Z,22
2022-11-09T11:01:44.164Z,14
2022-11-09T11:07:58.319Z,16
2022-11-09T11:13:41.357Z,26
2022-11-09T11:19:21.477Z,18
2022-11-09T11:25:04.525Z,0
2022-11-09T11:30:44.567Z,2
2022-11-09T11:36:27.670Z,34
2022-11-09T11:42:10.548Z,8
2022-11-09T11:47:50.520Z,10
2022-11-09T11:53:30.897Z,6
2022-11-09T11:59:10.972Z,6
2022-11-09T12:04:50.409Z,20
2022-11-09T12:10:38.492Z,10
2022-11-09T12:16:20.779Z,62
2022-11-09T12:22:00.615Z,84
2022-11-09T12:27:40.643Z,78
2022-11-09T12:33:23.957Z,90
2022-11-09T12:39:05.399Z,20
2022-11-09T12:44:46.015Z,16
2022-11-09T12:50:28.345Z,0
2022-11-09T12:56:09.018Z,12
2022-11-09T13:01:53.436Z,2
2022-11-09T13:07:33.918Z,82
2022-11-09T13:13:13.653Z,76
2022-11-09T13:18:54.946Z,74
2022-11-09T13:24:34.975Z,84
2022-11-09T13:30:14.770Z,82
2022-11-09T13:35:55.180Z,68
2022-11-09T13:41:35.324Z,80
2022-11-09T13:47:15.345Z,88
2022-11-09T13:52:55.320Z,84
2022-11-09T13:58:35.384Z,2
2022-11-09T14:04:15.708Z,64
2022-11-09T14:09:56.362Z,80
2022-11-09T14:15:36.237Z,98
2022-11-09T14:21:16.210Z,90
2022-11-09T14:26:59.503Z,78
2022-11-09T14:32:39.530Z,74
2022-11-09T14:38:25.029Z,102
2022-11-09T14:44:05.471Z,88
2022-11-09T14:49:45.491Z,74
2022-11-09T14:55:25.439Z,90
2022-11-09T15:01:06.883Z,84
2022-11-09T15:06:47.791Z,70
2022-11-09T15:12:27.845Z,90
2022-11-09T15:18:09.685Z,98
2022-11-09T15:23:49.903Z,90
2022-11-09T15:29:30.480Z,110
2022-11-09T15:35:11.500Z,96
2022-11-09T15:40:51.635Z,102
2022-11-09T15:46:33.094Z,110
2022-11-09T15:52:14.512Z,94
2022-11-09T15:57:55.733Z,98
2022-11-09T16:03:35.608Z,94
2022-11-09T16:09:16.050Z,94
2022-11-09T16:14:56.321Z,96
2022-11-09T16:20:36.530Z,92
2022-11-09T16:26:18.076Z,102
2022-11-09T16:32:20.985Z,92
2022-11-09T16:38:02.635Z,94
2022-11-09T16:43:44.185Z,104
2022-11-09T16:49:24.331Z,100
2022-11-09T16:55:05.565Z,122
2022-11-09T17:01:24.996Z,106
2022-11-09T17:07:06.027Z,100
2022-11-09T17:12:47.731Z,98
2022-11-09T17:18:28.004Z,120
2022-11-09T17:24:08.111Z,96
2022-11-09T17:29:49.430Z,94
2022-11-09T17:35:33.489Z,92
2022-11-09T17:41:14.534Z,100
2022-11-09T17:46:55.828Z,92
2022-11-09T17:52:36.057Z,94
2022-11-09T17:58:18.059Z,96
2022-11-09T18:04:09.370Z,106
2022-11-09T18:09:49.907Z,102
2022-11-09T18:15:30.167Z,90
2022-11-09T18:21:11.461Z,104
2022-11-09T18:26:51.734Z,112
2022-11-09T18:32:32.423Z,106
2022-11-09T18:38:29.064Z,94
2022-11-09T18:44:10.840Z,100
2022-11-09T18:49:50.751Z,92
2022-11-09T18:55:31.704Z,104
2022-11-09T19:01:12.588Z,100
2022-11-09T19:12:33.250Z,104
2022-11-09T19:18:13.440Z,106
2022-11-09T19:23:54.104Z,106
2022-11-09T19:29:34.458Z,102
2022-11-09T19:35:15.075Z,100
2022-11-09T19:40:55.842Z,94
2022-11-09T19:46:36.481Z,106
2022-11-09T19:52:20.418Z,106
2022-11-09T19:58:03.926Z,108
2022-11-09T20:03:57.297Z,104
2022-11-09T20:09:54.315Z,104
2022-11-09T20:15:37.849Z,98
2022-11-09T20:26:59.404Z,104
2022-11-09T20:32:39.626Z,100
2022-11-09T20:38:28.203Z,112
2022-11-09T20:44:08.618Z,94
2022-11-09T20:49:51.864Z,92
2022-11-09T20:55:32.072Z,100
2022-11-09T21:01:22.033Z,90
2022-11-09T21:07:12.622Z,100
2022-11-09T21:12:52.893Z,106
2022-11-09T21:18:33.180Z,106
2022-11-09T21:24:13.320Z,106
2022-11-09T21:29:53.469Z,98
2022-11-09T21:35:33.783Z,104
2022-11-09T21:41:14.203Z,102
2022-11-09T21:46:54.179Z,98
2022-11-09T21:52:34.341Z,104
2022-11-09T21:58:15.903Z,104
2022-11-09T22:03:56.035Z,100
2022-11-09T22:10:12.247Z,102
2022-11-09T22:15:52.711Z,92
2022-11-09T22:21:32.480Z,90
2022-11-09T22:27:12.976Z,94
2022-11-09T22:32:54.545Z,84
2022-11-09T22:38:34.814Z,124
2022-11-09T22:44:15.199Z,104
2022-11-09T22:49:56.152Z,100
2022-11-09T22:55:36.067Z,92
2022-11-09T23:01:17.716Z,96
2022-11-09T23:06:59.780Z,100
2022-11-09T23:12:40.068Z,104
2022-11-09T23:18:20.601Z,102
2022-11-09T23:24:02.113Z,90
2022-11-09T23:29:42.305Z,100
2022-11-09T23:35:22.969Z,98
2022-11-09T23:41:04.401Z,96
2022-11-09T23:46:45.476Z,110
2022-11-09T23:52:26.842Z,104
2022-11-09T23:58:08.322Z,90
